createdAt,value
2019-04-20T00:02:25.465Z,6.60
2019-04-20T00:04:57.066Z,6.33
2019-04-20T00:07:32.372Z,7.10
2019-04-20T00:10:07.911Z,6.63
2019-04-20T00:12:48.828Z,6.63
2019-04-20T00:15:07.005Z,6.17
2019-04-20T00:17:41.201Z,6.50
2019-04-20T00:20:16.395Z,6.60
2019-04-20T00:23:01.713Z,6.30
2019-04-20T00:26:02.630Z,6.30
2019-04-20T00:28:40.414Z,6.80
2019-04-20T00:31:12.666Z,5.90
2019-04-20T00:33:44.886Z,6.37
2019-04-20T00:36:03.164Z,5.80
2019-04-20T00:38:40.831Z,5.93
2019-04-20T00:41:10.165Z,5.97
2019-04-20T00:43:40.461Z,6.77
2019-04-20T00:46:19.550Z,5.63
2019-04-20T00:48:50.668Z,6.03
2019-04-20T00:51:33.526Z,5.50
2019-04-20T00:53:51.486Z,6.03
2019-04-20T00:56:20.277Z,5.93
2019-04-20T00:59:03.125Z,5.87
2019-04-20T01:01:46.108Z,6.00
2019-04-20T01:04:17.531Z,5.50
2019-04-20T01:06:57.523Z,5.20
2019-04-20T01:09:34.989Z,5.70
2019-04-20T01:12:14.535Z,6.07
2019-04-20T01:14:43.691Z,6.07
2019-04-20T01:17:11.978Z,6.50
2019-04-20T01:19:42.530Z,7.07
2019-04-20T01:22:18.416Z,7.33
2019-04-20T01:24:48.653Z,6.63
2019-04-20T01:27:36.679Z,5.97
2019-04-20T01:30:02.497Z,6.20
2019-04-20T01:32:35.982Z,6.20
2019-04-20T01:35:12.047Z,6.27
2019-04-20T01:37:39.466Z,6.23
2019-04-20T01:40:02.998Z,6.27
2019-04-20T01:42:32.534Z,5.47
2019-04-20T01:45:10.313Z,6.33
2019-04-20T01:47:42.232Z,5.77
2019-04-20T01:50:15.371Z,5.90
2019-04-20T01:52:56.470Z,5.47
2019-04-20T01:56:01.612Z,5.97
2019-04-20T01:58:39.796Z,5.73
2019-04-20T02:01:20.999Z,5.63
2019-04-20T02:04:00.325Z,5.80
2019-04-20T02:06:41.878Z,5.97
2019-04-20T02:09:13.473Z,5.63
2019-04-20T02:11:46.495Z,5.87
2019-04-20T02:14:25.635Z,6.20
2019-04-20T02:16:52.757Z,5.93
2019-04-20T02:19:34.454Z,5.60
2019-04-20T02:22:03.851Z,6.10
2019-04-20T02:24:23.922Z,5.70
2019-04-20T02:26:55.610Z,5.70
2019-04-20T02:29:58.199Z,5.67
2019-04-20T02:32:26.608Z,5.80
2019-04-20T02:35:07.249Z,5.30
2019-04-20T02:40:47.215Z,5.97
2019-04-20T02:43:18.494Z,5.70
2019-04-20T02:45:40.348Z,5.80
2019-04-20T02:48:21.674Z,5.70
2019-04-20T02:50:47.490Z,6.63
2019-04-20T02:53:46.612Z,6.37
2019-04-20T02:55:51.178Z,6.13
2019-04-20T02:58:15.200Z,5.03
2019-04-20T03:00:58.401Z,5.63
2019-04-20T03:03:03.253Z,6.47
2019-04-20T03:05:37.104Z,6.10
2019-04-20T03:08:19.123Z,6.17
2019-04-20T03:10:56.676Z,5.70
2019-04-20T03:13:25.473Z,6.50
2019-04-20T03:15:55.024Z,5.93
2019-04-20T03:18:27.675Z,6.33
2019-04-20T03:20:57.571Z,6.33
2019-04-20T03:23:38.554Z,5.77
2019-04-20T03:26:13.835Z,6.20
2019-04-20T03:28:51.490Z,6.23
2019-04-20T03:32:04.676Z,6.63
2019-04-20T03:34:24.951Z,6.57
2019-04-20T03:36:42.838Z,6.70
2019-04-20T03:39:03.656Z,6.40
2019-04-20T03:41:25.494Z,6.70
2019-04-20T03:43:49.709Z,6.97
2019-04-20T03:46:31.103Z,7.20
2019-04-20T03:49:09.534Z,7.50
2019-04-20T03:51:49.131Z,8.30
2019-04-20T03:54:19.978Z,7.90
2019-04-20T03:57:15.558Z,8.00
2019-04-20T03:59:52.882Z,7.80
2019-04-20T04:02:45.660Z,8.27
2019-04-20T04:05:18.544Z,7.73
2019-04-20T04:07:40.617Z,7.67
2019-04-20T04:10:20.749Z,8.07
2019-04-20T04:13:09.878Z,8.30
2019-04-20T04:15:48.626Z,8.63
2019-04-20T04:18:23.323Z,8.20
2019-04-20T04:20:55.288Z,8.10
2019-04-20T04:23:38.303Z,8.77
2019-04-20T04:26:08.610Z,7.93
2019-04-20T04:28:40.707Z,8.00
2019-04-20T04:31:20.452Z,8.70
2019-04-20T04:33:55.731Z,8.07
2019-04-20T04:36:18.209Z,8.50
2019-04-20T04:38:58.868Z,9.23
2019-04-20T04:41:26.621Z,8.50
2019-04-20T04:43:58.831Z,8.73
2019-04-20T04:46:12.447Z,8.73
2019-04-20T04:48:46.563Z,8.80
2019-04-20T04:51:22.315Z,8.70
2019-04-20T04:53:58.293Z,8.47
2019-04-20T04:56:23.415Z,8.27
2019-04-20T04:58:56.220Z,9.13
2019-04-20T05:01:30.764Z,8.63
2019-04-20T05:04:25.168Z,9.17
2019-04-20T05:06:45.787Z,9.47
2019-04-20T05:09:10.430Z,9.63
2019-04-20T05:11:38.583Z,10.17
2019-04-20T05:14:16.876Z,9.40
2019-04-20T05:16:58.260Z,9.17
2019-04-20T05:19:36.644Z,9.43
2019-04-20T05:22:14.913Z,9.17
2019-04-20T05:24:53.635Z,9.20
2019-04-20T05:27:44.147Z,9.00
2019-04-20T05:29:54.925Z,10.17
2019-04-20T05:32:35.802Z,9.40
2019-04-20T05:35:25.472Z,9.27
2019-04-20T05:40:38.794Z,9.07
2019-04-20T05:42:59.186Z,8.80
2019-04-20T05:45:29.983Z,9.53
2019-04-20T05:48:05.152Z,9.17
2019-04-20T05:50:37.738Z,9.20
2019-04-20T05:53:16.126Z,10.23
2019-04-20T05:55:43.200Z,9.57
2019-04-20T05:58:22.090Z,9.27
2019-04-20T06:00:55.417Z,8.53
2019-04-20T06:03:23.222Z,9.27
2019-04-20T06:05:58.251Z,9.87
2019-04-20T06:08:38.979Z,9.60
2019-04-20T06:11:03.867Z,9.47
2019-04-20T06:13:29.915Z,9.67
2019-04-20T06:16:12.965Z,9.40
2019-04-20T06:18:47.053Z,9.80
2019-04-20T06:21:53.246Z,9.70
2019-04-20T06:24:22.425Z,10.37
2019-04-20T06:29:18.386Z,9.70
2019-04-20T06:31:57.677Z,10.13
2019-04-20T06:34:46.613Z,9.77
2019-04-20T06:37:16.075Z,10.00
2019-04-20T06:39:37.002Z,10.70
2019-04-20T06:44:57.807Z,9.97
2019-04-20T06:47:15.487Z,10.30
2019-04-20T06:50:03.373Z,9.90
2019-04-20T06:55:02.735Z,9.80
2019-04-20T06:57:52.766Z,10.13
2019-04-20T07:02:44.323Z,10.33
2019-04-20T07:05:18.948Z,10.57
2019-04-20T07:12:49.733Z,9.90
2019-04-20T07:15:22.937Z,10.20
2019-04-20T07:18:06.171Z,9.90
2019-04-20T07:20:55.461Z,9.57
2019-04-20T07:23:26.532Z,9.90
2019-04-20T07:25:54.214Z,9.23
2019-04-20T07:28:32.873Z,10.67
2019-04-20T07:30:55.276Z,9.77
2019-04-20T07:33:32.160Z,9.87
2019-04-20T07:36:05.233Z,10.70
2019-04-20T07:38:40.239Z,9.67
2019-04-20T07:41:17.417Z,9.67
2019-04-20T07:43:51.149Z,9.57
2019-04-20T07:46:20.845Z,10.07
2019-04-20T07:48:42.252Z,10.10
2019-04-20T07:51:08.159Z,10.03
2019-04-20T07:53:40.580Z,10.20
2019-04-20T07:56:28.357Z,10.43
2019-04-20T07:58:41.102Z,10.20
2019-04-20T08:01:43.064Z,9.83
2019-04-20T08:04:13.563Z,9.90
2019-04-20T08:06:36.898Z,9.37
2019-04-20T08:09:16.070Z,9.97
2019-04-20T08:11:55.148Z,9.83
2019-04-20T08:14:34.562Z,9.40
2019-04-20T08:17:14.370Z,9.27
2019-04-20T08:19:28.546Z,9.13
2019-04-20T08:22:07.692Z,9.47
2019-04-20T08:24:32.800Z,10.03
2019-04-20T08:27:00.310Z,8.87
2019-04-20T08:29:45.208Z,9.00
2019-04-20T08:32:30.693Z,8.57
2019-04-20T08:35:05.671Z,9.70
2019-04-20T08:37:38.021Z,9.10
2019-04-20T08:40:10.290Z,8.87
2019-04-20T08:42:54.397Z,8.37
2019-04-20T08:45:18.081Z,8.50
2019-04-20T08:48:06.873Z,8.63
2019-04-20T08:50:19.839Z,8.80
2019-04-20T08:55:19.614Z,8.90
2019-04-20T08:57:35.573Z,8.83
2019-04-20T09:00:09.049Z,9.33
2019-04-20T09:02:41.369Z,8.03
2019-04-20T09:05:28.725Z,8.40
2019-04-20T09:07:56.542Z,9.50
2019-04-20T09:10:39.247Z,9.13
2019-04-20T09:13:06.072Z,8.30
2019-04-20T09:15:23.461Z,7.50
2019-04-20T09:18:03.723Z,7.93
2019-04-20T09:20:43.509Z,7.07
2019-04-20T09:23:21.491Z,5.87
2019-04-20T09:26:00.436Z,5.75
2019-04-20T09:28:26.968Z,5.87
2019-04-20T09:31:10.803Z,5.47
2019-04-20T09:33:57.056Z,5.30
2019-04-20T09:36:29.206Z,5.10
2019-04-20T09:39:15.463Z,4.37
2019-04-20T09:42:00.473Z,4.65
2019-04-20T09:44:26.808Z,4.63
2019-04-20T09:46:56.981Z,4.60
2019-04-20T09:49:39.958Z,5.03
2019-04-20T09:52:13.416Z,4.37
2019-04-20T09:54:45.310Z,3.80
2019-04-20T09:57:25.336Z,3.67
2019-04-20T09:59:53.635Z,2.73
2019-04-20T10:02:17.493Z,2.87
2019-04-20T10:04:41.789Z,3.10
2019-04-20T10:07:17.634Z,2.80
2019-04-20T10:09:46.972Z,2.70
2019-04-20T10:12:17.698Z,3.33
2019-04-20T10:14:49.068Z,2.87
2019-04-20T10:17:20.278Z,3.40
2019-04-20T10:19:51.422Z,3.50
2019-04-20T10:22:22.567Z,3.60
2019-04-20T10:24:54.348Z,2.23
2019-04-20T10:27:26.443Z,2.90
2019-04-20T10:29:58.373Z,2.30
2019-04-20T10:32:36.406Z,2.60
2019-04-20T10:35:02.516Z,2.40
2019-04-20T10:37:39.765Z,2.75
2019-04-20T10:40:11.524Z,2.50
2019-04-20T10:42:42.233Z,2.80
2019-04-20T10:45:14.951Z,3.62
2019-04-20T10:47:47.213Z,3.30
2019-04-20T10:50:25.145Z,3.92
2019-04-20T10:52:56.110Z,3.90
2019-04-20T10:55:29.360Z,3.80
2019-04-20T10:58:01.640Z,3.98
2019-04-20T11:00:44.090Z,4.05
2019-04-20T11:03:17.751Z,4.03
2019-04-20T11:05:52.938Z,3.55
2019-04-20T11:08:24.491Z,4.62
2019-04-20T11:11:05.037Z,3.72
2019-04-20T11:13:27.730Z,3.87
2019-04-20T11:15:58.542Z,3.10
2019-04-20T11:18:33.459Z,3.02
2019-04-20T11:21:04.144Z,2.72
2019-04-20T11:23:36.241Z,3.33
2019-04-20T11:26:08.401Z,2.92
2019-04-20T11:28:39.951Z,3.35
2019-04-20T11:31:12.329Z,2.80
2019-04-20T11:33:43.522Z,3.20
2019-04-20T11:36:14.918Z,2.55
2019-04-20T11:38:47.040Z,3.05
2019-04-20T11:41:25.052Z,3.05
2019-04-20T11:43:51.517Z,3.00
2019-04-20T11:46:22.874Z,3.20
2019-04-20T11:48:53.651Z,3.25
2019-04-20T11:51:27.579Z,3.22
2019-04-20T11:54:01.553Z,2.65
2019-04-20T11:56:38.170Z,3.05
2019-04-20T11:59:05.335Z,2.77
2019-04-20T12:01:58.877Z,2.75
2019-04-20T12:04:40.356Z,2.85
2019-04-20T12:07:01.488Z,2.90
2019-04-20T12:09:33.507Z,2.70
2019-04-20T12:12:15.530Z,2.58
2019-04-20T12:14:36.904Z,2.60
2019-04-20T12:17:08.774Z,2.40
2019-04-20T12:19:39.777Z,2.50
2019-04-20T12:22:11.861Z,2.50
2019-04-20T12:24:44.455Z,2.80
2019-04-20T12:27:16.589Z,2.62
2019-04-20T12:29:47.919Z,2.85
2019-04-20T12:32:19.639Z,3.02
2019-04-20T12:34:50.484Z,2.85
2019-04-20T12:37:21.329Z,2.90
2019-04-20T12:39:53.286Z,2.45
2019-04-20T12:42:25.336Z,2.70
2019-04-20T12:44:55.865Z,2.58
2019-04-20T12:47:29.963Z,2.70
2019-04-20T12:50:01.363Z,2.50
2019-04-20T12:52:32.626Z,2.30
2019-04-20T12:55:05.207Z,2.00
2019-04-20T12:57:40.642Z,3.00
2019-04-20T13:00:15.239Z,2.85
2019-04-20T13:02:47.386Z,2.80
2019-04-20T13:05:19.476Z,2.72
2019-04-20T13:07:55.948Z,2.60
2019-04-20T13:10:25.435Z,2.72
2019-04-20T13:13:04.681Z,2.77
2019-04-20T13:15:56.299Z,2.70
2019-04-20T13:18:32.921Z,3.12
2019-04-20T13:21:04.816Z,2.67
2019-04-20T13:23:37.267Z,2.80
2019-04-20T13:26:11.010Z,2.70
2019-04-20T13:28:43.295Z,3.08
2019-04-20T13:31:15.691Z,2.62
2019-04-20T13:33:47.515Z,3.30
2019-04-20T13:36:19.809Z,3.42
2019-04-20T13:38:50.593Z,2.85
2019-04-20T13:41:22.029Z,3.02
2019-04-20T13:43:54.839Z,2.87
2019-04-20T13:46:29.178Z,2.77
2019-04-20T13:49:00.802Z,3.05
2019-04-20T13:51:32.883Z,3.62
2019-04-20T13:54:07.352Z,2.90
2019-04-20T13:56:37.632Z,2.90
2019-04-20T13:59:27.869Z,2.70
2019-04-20T14:02:10.802Z,3.02
2019-04-20T14:04:48.682Z,2.83
2019-04-20T14:07:20.297Z,2.98
2019-04-20T14:09:53.451Z,2.40
2019-04-20T14:12:31.560Z,2.40
2019-04-20T14:14:57.330Z,2.62
2019-04-20T14:17:29.026Z,2.27
2019-04-20T14:20:05.615Z,2.25
2019-04-20T14:22:33.348Z,2.90
2019-04-20T14:25:05.040Z,2.25
2019-04-20T14:27:37.114Z,2.30
2019-04-20T14:30:09.004Z,2.62
2019-04-20T14:32:40.929Z,2.30
2019-04-20T14:35:12.098Z,2.52
2019-04-20T14:37:43.822Z,2.92
2019-04-20T14:40:14.719Z,3.02
2019-04-20T14:42:50.346Z,2.72
2019-04-20T14:45:20.673Z,2.52
2019-04-20T14:47:52.033Z,2.62
2019-04-20T14:50:23.607Z,2.58
2019-04-20T14:52:55.633Z,2.40
2019-04-20T14:55:27.519Z,2.90
2019-04-20T14:58:01.582Z,2.77
2019-04-20T15:00:51.307Z,2.55
2019-04-20T15:03:40.503Z,2.70
2019-04-20T15:06:11.817Z,2.20
2019-04-20T15:08:42.999Z,2.55
2019-04-20T15:11:14.744Z,2.55
2019-04-20T15:13:46.863Z,2.40
2019-04-20T15:16:17.656Z,2.60
2019-04-20T15:19:07.572Z,2.70
2019-04-20T15:21:39.639Z,2.90
2019-04-20T15:24:11.344Z,2.90
2019-04-20T15:26:42.588Z,2.50
2019-04-20T15:29:14.517Z,2.50
2019-04-20T15:31:45.973Z,2.60
2019-04-20T15:34:17.189Z,2.50
2019-04-20T15:36:48.280Z,2.60
2019-04-20T15:39:19.055Z,4.40
2019-04-20T15:41:49.780Z,2.62
2019-04-20T15:44:21.764Z,2.85
2019-04-20T15:46:53.165Z,2.98
2019-04-20T15:49:26.307Z,3.20
2019-04-20T15:51:57.611Z,2.92
2019-04-20T15:54:29.580Z,3.08
2019-04-20T15:57:07.492Z,2.70
2019-04-20T15:59:34.760Z,3.20
2019-04-20T16:02:13.643Z,2.75
2019-04-20T16:05:04.058Z,3.12
2019-04-20T16:07:40.568Z,2.95
2019-04-20T16:10:09.543Z,2.37
2019-04-20T16:12:40.734Z,3.35
2019-04-20T16:15:13.316Z,2.80
2019-04-20T16:17:47.789Z,3.10
2019-04-20T16:20:20.110Z,3.20
2019-04-20T16:22:49.163Z,2.90
2019-04-20T16:25:39.320Z,3.15
2019-04-20T16:28:11.791Z,3.33
2019-04-20T16:30:43.435Z,2.95
2019-04-20T16:33:14.673Z,3.05
2019-04-20T16:35:46.867Z,3.25
2019-04-20T16:38:20.362Z,2.90
2019-04-20T16:40:52.485Z,3.22
2019-04-20T16:43:29.142Z,3.30
2019-04-20T16:45:57.094Z,3.33
2019-04-20T16:48:28.299Z,3.60
2019-04-20T16:51:00.647Z,3.40
2019-04-20T16:53:32.862Z,3.85
2019-04-20T16:56:04.104Z,3.80
2019-04-20T16:58:35.792Z,4.10
2019-04-20T17:01:07.741Z,3.60
2019-04-20T17:03:49.152Z,4.03
2019-04-20T17:06:11.789Z,3.92
2019-04-20T17:08:44.429Z,3.72
2019-04-20T17:11:16.018Z,3.90
2019-04-20T17:13:50.040Z,4.03
2019-04-20T17:16:20.052Z,4.20
2019-04-20T17:18:52.064Z,4.50
2019-04-20T17:21:25.822Z,5.30
2019-04-20T17:23:55.662Z,7.87
2019-04-20T17:26:34.817Z,7.27
2019-04-20T17:29:28.327Z,7.83
2019-04-20T17:32:08.446Z,6.63
2019-04-20T17:34:54.531Z,5.37
2019-04-20T17:37:13.223Z,4.67
2019-04-20T17:40:06.680Z,4.30
2019-04-20T17:42:33.299Z,4.30
2019-04-20T17:45:00.718Z,4.70
2019-04-20T17:47:44.918Z,5.20
2019-04-20T17:50:17.218Z,6.07
2019-04-20T17:52:49.679Z,4.90
2019-04-20T17:55:22.134Z,5.33
2019-04-20T17:57:41.587Z,5.40
2019-04-20T18:00:38.636Z,5.23
2019-04-20T18:03:20.811Z,5.77
2019-04-20T18:06:03.281Z,5.20
2019-04-20T18:08:35.634Z,5.77
2019-04-20T18:11:01.082Z,5.83
2019-04-20T18:13:29.080Z,6.30
2019-04-20T18:16:22.396Z,7.60
2019-04-20T18:19:00.136Z,9.47
2019-04-20T18:21:31.199Z,10.50
2019-04-20T18:24:05.301Z,10.63
2019-04-20T18:26:56.459Z,10.17
2019-04-20T18:29:26.089Z,11.27
2019-04-20T18:31:59.543Z,12.77
2019-04-20T18:34:54.277Z,12.13
2019-04-20T18:37:25.718Z,11.00
2019-04-20T18:40:05.060Z,10.67
2019-04-20T18:42:36.801Z,10.70
2019-04-20T18:45:21.893Z,10.70
2019-04-20T18:48:02.697Z,9.63
2019-04-20T18:50:26.588Z,9.07
2019-04-20T18:52:53.841Z,10.40
2019-04-20T18:55:33.256Z,18.57
2019-04-20T18:57:59.374Z,13.57
2019-04-20T19:00:41.770Z,10.63
2019-04-20T19:03:18.325Z,9.33
2019-04-20T19:05:43.884Z,10.10
2019-04-20T19:08:17.162Z,9.20
2019-04-20T19:10:57.553Z,9.63
2019-04-20T19:13:38.754Z,10.10
2019-04-20T19:16:29.697Z,10.13
2019-04-20T19:19:06.365Z,10.70
2019-04-20T19:21:31.649Z,9.00
2019-04-20T19:24:10.953Z,8.97
2019-04-20T19:26:47.674Z,8.83
2019-04-20T19:29:20.482Z,8.80
2019-04-20T19:32:08.807Z,8.83
2019-04-20T19:34:41.777Z,9.40
2019-04-20T19:37:13.748Z,9.60
2019-04-20T19:39:50.675Z,9.83
2019-04-20T19:42:23.120Z,11.57
2019-04-20T19:44:58.008Z,10.67
2019-04-20T19:47:32.436Z,10.50
2019-04-20T19:50:19.660Z,9.87
2019-04-20T19:53:05.772Z,9.90
2019-04-20T19:55:14.732Z,9.17
2019-04-20T19:57:45.191Z,9.10
2019-04-20T20:00:04.577Z,10.30
2019-04-20T20:02:36.141Z,10.40
2019-04-20T20:05:15.308Z,10.47
2019-04-20T20:07:51.155Z,8.80
2019-04-20T20:10:27.936Z,9.10
2019-04-20T20:13:01.216Z,8.10
2019-04-20T20:15:34.916Z,8.43
2019-04-20T20:18:23.110Z,7.20
2019-04-20T20:20:59.519Z,8.00
2019-04-20T20:23:18.238Z,7.13
2019-04-20T20:25:51.484Z,7.23
2019-04-20T20:28:33.563Z,8.00
2019-04-20T20:31:08.370Z,8.60
2019-04-20T20:33:43.937Z,9.47
2019-04-20T20:36:11.783Z,9.60
2019-04-20T20:38:42.721Z,8.93
2019-04-20T20:41:25.003Z,7.67
2019-04-20T20:44:01.147Z,7.73
2019-04-20T20:46:29.450Z,8.53
2019-04-20T20:49:12.073Z,7.90
2019-04-20T20:51:48.562Z,7.80
2019-04-20T20:54:06.861Z,8.70
2019-04-20T20:56:35.846Z,15.30
2019-04-20T20:59:11.252Z,10.93
2019-04-20T21:01:45.263Z,9.10
2019-04-20T21:04:06.948Z,9.93
2019-04-20T21:06:38.542Z,9.83
2019-04-20T21:09:10.391Z,11.47
2019-04-20T21:11:44.209Z,11.00
2019-04-20T21:14:21.972Z,9.27
2019-04-20T21:17:01.346Z,8.77
2019-04-20T21:19:45.458Z,8.17
2019-04-20T21:22:06.676Z,7.90
2019-04-20T21:24:31.718Z,8.20
2019-04-20T21:27:07.930Z,8.07
2019-04-20T21:29:41.348Z,8.23
2019-04-20T21:32:11.854Z,7.80
2019-04-20T21:34:43.302Z,7.53
2019-04-20T21:37:15.252Z,8.40
2019-04-20T21:39:50.097Z,8.90
2019-04-20T21:42:19.843Z,8.97
2019-04-20T21:44:50.475Z,8.40
2019-04-20T21:47:27.302Z,9.03
2019-04-20T21:50:09.844Z,8.53
2019-04-20T21:52:35.576Z,8.73
2019-04-20T21:54:58.186Z,8.00
2019-04-20T21:57:32.497Z,7.83
2019-04-20T22:00:10.336Z,7.43
2019-04-20T22:02:48.836Z,7.57
2019-04-20T22:05:09.416Z,7.73
2019-04-20T22:07:40.789Z,7.17
2019-04-20T22:10:18.253Z,7.73
2019-04-20T22:12:54.078Z,7.70
2019-04-20T22:15:27.135Z,7.37
2019-04-20T22:17:52.632Z,8.00
2019-04-20T22:20:33.618Z,6.87
2019-04-20T22:23:06.052Z,6.77
2019-04-20T22:25:52.373Z,6.90
2019-04-20T22:28:04.059Z,6.33
2019-04-20T22:30:35.833Z,7.17
2019-04-20T22:33:18.593Z,7.43
2019-04-20T22:35:52.999Z,6.50
2019-04-20T22:38:22.668Z,7.10
2019-04-20T22:41:03.826Z,7.00
2019-04-20T22:43:34.853Z,7.80
2019-04-20T22:46:03.303Z,8.70
2019-04-20T22:48:40.502Z,7.60
2019-04-20T22:51:25.868Z,8.83
2019-04-20T22:53:54.491Z,8.80
2019-04-20T22:56:34.131Z,8.40
2019-04-20T22:58:57.600Z,8.67
2019-04-20T23:01:29.926Z,8.50
2019-04-20T23:03:54.952Z,7.83
2019-04-20T23:06:33.365Z,6.50
2019-04-20T23:09:01.975Z,7.13
2019-04-20T23:11:33.530Z,7.20
2019-04-20T23:14:02.738Z,7.83
2019-04-20T23:16:40.457Z,6.07
2019-04-20T23:19:07.899Z,7.03
2019-04-20T23:21:48.736Z,6.87
2019-04-20T23:24:14.605Z,7.47
2019-04-20T23:26:47.327Z,7.03
2019-04-20T23:29:22.672Z,6.50
2019-04-20T23:31:56.907Z,7.10
2019-04-20T23:34:28.478Z,6.63
2019-04-20T23:36:56.759Z,7.17
2019-04-20T23:39:34.780Z,6.67
2019-04-20T23:42:04.196Z,7.30
2019-04-20T23:44:45.852Z,6.90
2019-04-20T23:47:22.051Z,6.87
2019-04-20T23:50:13.770Z,6.90
2019-04-20T23:52:49.475Z,6.50
2019-04-20T23:55:05.976Z,6.77
2019-04-20T23:57:33.831Z,6.70
